Flight Track Log - Related Links

Times and Time Zones

All times are in EDT time to prevent confusion due to time zone crossing. See the QJE1798 flight status page for this flight to view local times or setup timezone preferences in your user account.

Time Position Orientation Groundspeed Altitude Reporting Facility
EDT Latitude Longitude Course Direction KTS MPH feet Rate Location/Type
Sat 08:06:54 PM -27.3971 153.1216 206° Southwest 175 201 200  Level FlightAware ADS-B
Sat 08:07:09 PM -27.4079 153.1158 207° Southwest 167 192 1,000 3,000 Climbing FlightAware ADS-B
Sat 08:07:24 PM -27.4179 153.1097 209° Southwest 166 191 1,700 2,000 Climbing FlightAware ADS-B
Sat 08:07:39 PM -27.4282 153.1032 210° Southwest 182 209 2,000 1,400 Climbing FlightAware ADS-B
Sat 08:07:54 PM -27.4403 153.0956 210° Southwest 201 231 2,400 1,400 Climbing FlightAware ADS-B
Sat 08:08:09 PM -27.4526 153.0878 209° Southwest 215 247 2,700 1,800 Climbing FlightAware ADS-B
Sat 08:08:24 PM -27.4662 153.0795 209° Southwest 222 255 3,300 2,600 Climbing FlightAware ADS-B
Sat 08:08:39 PM -27.4799 153.0710 211° Southwest 222 255 4,000 2,700 Climbing FlightAware ADS-B
Sat 08:08:44 PM -27.4840 153.0675 221° Southwest 221 254 4,200 3,000 Climbing FlightAware ADS-B
Sat 08:08:49 PM -27.4868 153.0642 233° Southwest 223 257 4,500 3,000 Climbing FlightAware ADS-B
Sat 08:08:54 PM -27.4900 153.0585 242° Southwest 224 258 4,700 2,250 Climbing FlightAware ADS-B
Sat 08:08:57 PM -27.4911 153.0557 249° West 226 260 4,800 2,400 Climbing FlightAware ADS-B
Sat 08:09:04 PM -27.4927 153.0469 265° West 230 265 5,100 2,500 Climbing FlightAware ADS-B
Sat 08:09:09 PM -27.4928 153.0420 272° West 234 269 5,300 1,800 Climbing FlightAware ADS-B
Sat 08:09:14 PM -27.4920 153.0344 279° West 241 277 5,400 1,200 Climbing FlightAware ADS-B
Sat 08:09:19 PM -27.4907 153.0285 286° West 248 285 5,500 1,200 Climbing FlightAware ADS-B
Sat 08:09:24 PM -27.4887 153.0228 293° West 255 293 5,600 1,800 Climbing FlightAware ADS-B
Sat 08:09:29 PM -27.4858 153.0168 301° West 262 302 5,800 2,400 Climbing FlightAware ADS-B
Sat 08:09:34 PM -27.4819 153.0108 307° West 265 305 6,000 2,571 Climbing FlightAware ADS-B
Sat 08:09:50 PM -27.4696 152.9946 311° West 271 312 6,700 2,700 Climbing FlightAware ADS-B
Sat 08:09:54 PM -27.4661 152.9902 312° West 273 314 6,900 2,400 Climbing FlightAware ADS-B
Sat 08:10:10 PM -27.4519 152.9723 312° West 276 318 7,500 2,323 Climbing FlightAware ADS-B
Sat 08:10:25 PM -27.4394 152.9568 311° West 274 315 8,100 2,400 Climbing FlightAware ADS-B (EGHI / SOU)
Sat 08:10:35 PM -27.4308 152.9460 312° West 281 323 8,500 2,700 Climbing FlightAware ADS-B
Sat 08:10:45 PM -27.4217 152.9347 311° West 274 315 9,000 3,300 Climbing FlightAware ADS-B (EGHI / SOU)
Sat 08:10:55 PM -27.4131 152.9239 310° West 272 313 9,600 3,300 Climbing FlightAware ADS-B (EGHI / SOU)
Sat 08:11:05 PM -27.4042 152.9127 311° West 271 312 10,100 2,700 Climbing FlightAware ADS-B (EGHI / SOU)
Sat 08:11:15 PM -27.3957 152.9020 311° West 275 316 10,500 1,500 Climbing FlightAware ADS-B (EGHI / SOU)
Sat 08:11:45 PM -27.3701 152.8696 311° West 308 354 11,100 1,300 Climbing FlightAware ADS-B
Sat 08:12:15 PM -27.3392 152.8305 311° West 331 381 11,800 1,300 Climbing FlightAware ADS-B
Sat 08:12:45 PM -27.3089 152.7922 312° West 340 391 12,400 1,371 Climbing FlightAware ADS-B (EGHI / SOU)
Sat 08:12:50 PM -27.3026 152.7842 311° West 351 404 12,600 1,500 Climbing FlightAware ADS-B (EGHI / SOU)
Sat 08:13:21 PM -27.2690 152.7417 312° West 375 432 13,300 1,905 Climbing FlightAware ADS-B
Sat 08:13:53 PM -27.2312 152.6942 312° West 373 429 14,600 2,455 Climbing FlightAware ADS-B
Sat 08:14:05 PM -27.2171 152.6765 311° West 369 425 15,100 2,455 Climbing FlightAware ADS-B (EGHI / SOU)
Sat 08:14:15 PM -27.2053 152.6617 311° West 370 426 15,500 2,100 Climbing FlightAware ADS-B (EGHI / SOU)
Sat 08:14:25 PM -27.1934 152.6468 311° West 373 429 15,800 1,800 Climbing FlightAware ADS-B (EGHI / SOU)
Sat 08:14:35 PM -27.1817 152.6321 311° West 375 432 16,100 2,000 Climbing FlightAware ADS-B (EGHI / SOU)
Sat 08:14:46 PM -27.1704 152.6180 312° West 380 437 16,500 2,286 Climbing FlightAware ADS-B
Sat 08:14:56 PM -27.1576 152.6018 312° West 380 437 16,900 2,100 Climbing FlightAware ADS-B
Sat 08:15:06 PM -27.1458 152.5870 312° West 382 440 17,200 1,650 Climbing FlightAware ADS-B
Sat 08:15:36 PM -27.1096 152.5412 312° West 392 451 18,000 1,770 Climbing FlightAware ADS-B
Sat 08:16:07 PM -27.0738 152.4963 311° West 393 452 19,000 1,607 Climbing FlightAware ADS-B
Sat 08:16:32 PM -27.0472 152.4541 298° West 392 451 19,500 1,393 Climbing FlightAware ADS-B
Sat 08:17:03 PM -27.0209 152.3974 298° West 395 455 20,300 1,500 Climbing FlightAware ADS-B
Sat 08:17:12 PM -27.0122 152.3793 297° West 393 452 20,500 1,350 Climbing FlightAware ADS-B (EGHI / SOU)
Sat 08:17:43 PM -26.9854 152.3234 298° West 404 465 21,200 1,412 Climbing FlightAware ADS-B
Sat 08:18:03 PM -26.9679 152.2868 297° West 402 463 21,700 1,320 Climbing FlightAware ADS-B (EGHI / SOU)
Sat 08:18:33 PM -26.9423 152.2327 298° West 410 472 22,300 1,377 Climbing FlightAware ADS-B
Sat 08:19:04 PM -26.9139 152.1727 298° West 411 473 23,100 1,279 Climbing FlightAware ADS-B
Sat 08:19:34 PM -26.8872 152.1164 298° West 417 480 23,600 1,100 Climbing FlightAware ADS-B
Sat 08:20:04 PM -26.8593 152.0577 298° West 421 484 24,200 1,050 Climbing FlightAware ADS-B
Sat 08:20:14 PM -26.8512 152.0407 297° West 419 482 24,300 818 Climbing FlightAware ADS-B (EGHI / SOU)
Sat 08:20:26 PM -26.8391 152.0153 297° West 419 482 24,500 1,091 Climbing FlightAware ADS-B (EGHI / SOU)
Sat 08:20:36 PM -26.8298 151.9960 297° West 419 482 24,700 1,200 Climbing FlightAware ADS-B (EGHI / SOU)
Sat 08:20:46 PM -26.8204 151.9763 297° West 419 482 24,900 1,429 Climbing FlightAware ADS-B (EGHI / SOU)
Sat 08:20:57 PM -26.8110 151.9567 297° West 418 481 25,200 1,429 Climbing FlightAware ADS-B (EGHI / SOU)
Sat 08:21:07 PM -26.8017 151.9375 297° West 419 482 25,400 947 Climbing FlightAware ADS-B (EGHI / SOU)
Sat 08:21:16 PM -26.7936 151.9205 297° West 420 483 25,500 632 Climbing FlightAware ADS-B (EGHI / SOU)
Sat 08:21:26 PM -26.7837 151.8999 297° West 424 488 25,600 600 Climbing FlightAware ADS-B (EGHI / SOU)
Sat 08:21:36 PM -26.7747 151.8806 295° West 426 490 25,700 600 Climbing FlightAware ADS-B (EGHI / SOU)
Sat 08:21:46 PM -26.7671 151.8593 288° West 426 490 25,800 800 Climbing FlightAware ADS-B (EGHI / SOU)
Sat 08:22:06 PM -26.7551 151.8172 286° West 423 487 26,100 1,000 Climbing FlightAware ADS-B (EGHI / SOU)
Sat 08:22:16 PM -26.7501 151.7955 282° West 422 486 26,300 1,200 Climbing FlightAware ADS-B (EGHI / SOU)
Sat 08:22:26 PM -26.7470 151.7758 277° West 421 484 26,500 1,200 Climbing FlightAware ADS-B (EGHI / SOU)
Sat 08:22:36 PM -26.7448 151.7542 275° West 419 482 26,700 1,429 Climbing FlightAware ADS-B (EGHI / SOU)
Sat 08:22:47 PM -26.7425 151.7301 276° West 417 480 27,000 1,429 Climbing FlightAware ADS-B
Sat 08:22:57 PM -26.7406 151.7104 276° West 417 480 27,200 900 Climbing FlightAware ADS-B
Sat 08:23:07 PM -26.7385 151.6872 276° West 419 482 27,300 600 Climbing FlightAware ADS-B
Sat 08:23:17 PM -26.7367 151.6669 276° West 420 483 27,400 1,200 Climbing FlightAware ADS-B
Sat 08:23:27 PM -26.7349 151.6454 275° West 416 479 27,700 1,200 Climbing FlightAware ADS-B
Sat 08:23:57 PM -26.7297 151.5812 275° West 414 476 28,200 1,200 Climbing FlightAware ADS-B
Sat 08:24:27 PM -26.7248 151.5181 275° West 409 471 28,900 1,300 Climbing FlightAware ADS-B
Sat 08:24:57 PM -26.7194 151.4540 275° West 406 467 29,500 960 Climbing FlightAware ADS-B
Sat 08:25:17 PM -26.7159 151.4119 276° West 407 468 29,700 600 Climbing FlightAware ADS-B
Sat 08:25:27 PM -26.7140 151.3910 276° West 408 470 29,800 450 Climbing FlightAware ADS-B
Sat 08:25:57 PM -26.7084 151.3293 275° West 408 470 30,000 324 Climbing FlightAware ADS-B (EGHI / SOU)
Sat 08:26:04 PM -26.7072 151.3163 276° West 408 470 30,000  Level FlightAware ADS-B
Sat 08:26:18 PM -26.7044 151.2841 276° West 407 468 30,000  Level FlightAware ADS-B
Sat 08:26:48 PM -26.6994 151.2258 276° West 405 466 30,000  Level FlightAware ADS-B
Sat 08:26:51 PM -26.6985 151.2153 276° West 405 466 30,000  Level FlightAware ADS-B
Sat 08:27:24 PM -26.6926 151.1505 276° West 405 466 30,000  Level FlightAware ADS-B
Sat 08:27:56 PM -26.6859 151.0799 275° West 402 463 30,000  Level FlightAware ADS-B (EGHI / SOU)
Sat 08:28:04 PM -26.6844 151.0634 275° West 402 463 30,000  Level FlightAware ADS-B (EGHI / SOU)
Sat 08:28:34 PM -26.6789 151.0022 276° West 403 464 30,000  Level FlightAware ADS-B
Sat 08:29:04 PM -26.6733 150.9405 276° West 403 464 30,000  Level FlightAware ADS-B
Sat 08:29:34 PM -26.6674 150.8786 276° West 402 463 30,000  Level FlightAware ADS-B
Sat 08:30:04 PM -26.6617 150.8183 276° West 402 463 30,000  Level FlightAware ADS-B
Sat 08:30:16 PM -26.6590 150.7906 275° West 403 464 30,000  Level FlightAware ADS-B (EGHI / SOU)
Sat 08:30:26 PM -26.6570 150.7695 275° West 402 463 30,000  Level FlightAware ADS-B (EGHI / SOU)
Sat 08:30:31 PM -26.6562 150.7604 275° West 402 463 30,000  Level FlightAware ADS-B (EGHI / SOU)
Sat 08:31:18 PM -26.6473 150.6644 276° West 403 464 30,000 77 Level FlightAware ADS-B
Sat 08:31:49 PM -26.6406 150.5981 276° West 398 458 30,100 83 Climbing Aus ATC (RADAR)
Sat 08:32:30 PM -26.6329 150.5152 276° West 399 459 30,100  Level Aus ATC (RADAR)
Sat 08:33:14 PM -26.6240 150.4221 276° West 399 459 30,100  Level Aus ATC (RADAR)
Sat 08:33:44 PM -26.6179 150.3602 276° West 399 459 30,100  Level Aus ATC (RADAR)
Sat 08:34:39 PM -26.6068 150.2471 276° West 397 457 30,100  Level Aus ATC (RADAR)
Sat 08:35:09 PM -26.6009 150.1854 276° West 397 457 30,100  Level Aus ATC (RADAR)
Sat 08:35:34 PM -26.5963 150.1340 276° West 397 457 30,100  Level Aus ATC (RADAR)
Sat 08:36:09 PM -26.5886 150.0624 277° West 396 456 30,100  Level Aus ATC (RADAR)
Sat 08:36:59 PM -26.5786 149.9601 276° West 395 455 30,100  Level Aus ATC (RADAR)
Sat 08:37:39 PM -26.5703 149.8782 276° West 396 456 30,100  Level Aus ATC (RADAR)
Sat 08:38:24 PM -26.5612 149.7861 276° West 395 455 30,100  Level Aus ATC (RADAR)
Sat 08:38:49 PM -26.5559 149.7352 277° West 395 455 30,100  Level Aus ATC (RADAR)
Sat 08:39:39 PM -26.5457 149.6329 276° West 396 456 30,100  Level Aus ATC (RADAR)
Sat 08:40:09 PM -26.5386 149.5703 277° West 401 461 30,100  Level Aus ATC (RADAR)
Sat 08:40:39 PM -26.5325 149.5086 276° West 401 461 30,100  Level Aus ATC (RADAR)
Sat 08:41:13 PM -26.5250 149.4369 277° West 399 459 30,100  Level Aus ATC (RADAR)
Sat 08:41:58 PM -26.5154 149.3459 277° West 395 455 30,100  Level Aus ATC (RADAR)
Sat 08:42:39 PM -26.5069 149.2648 277° West 394 453 30,100  Level Aus ATC (RADAR)
Sat 08:43:28 PM -26.4955 149.1631 277° West 394 453 30,100  Level Aus ATC (RADAR)
Sat 08:44:03 PM -26.4883 149.0923 276° West 393 452 30,100  Level Aus ATC (RADAR)
Sat 08:45:18 PM -26.4718 148.9405 277° West 392 451 30,100  Level Aus ATC (RADAR)
Sat 08:45:43 PM -26.4665 148.8905 277° West 390 449 30,100  Level Aus ATC (RADAR)
Sat 08:46:18 PM -26.4592 148.8198 277° West 392 451 30,100  Level Aus ATC (RADAR)
Sat 08:46:58 PM -26.4505 148.7386 277° West 393 452 30,100  Level Aus ATC (RADAR)
Sat 08:47:33 PM -26.4422 148.6674 277° West 395 455 30,100  Level Aus ATC (RADAR)
Sat 08:48:23 PM -26.4313 148.5663 277° West 394 453 30,100  Level Aus ATC (RADAR)
Sat 08:48:48 PM -26.4252 148.5147 277° West 397 457 30,100  Level Aus ATC (RADAR)
Sat 08:49:23 PM -26.4173 148.4438 277° West 396 456 30,100  Level Aus ATC (RADAR)
Sat 08:50:28 PM -26.4035 148.3129 277° West 393 452 30,100  Level Aus ATC (RADAR)
Sat 08:50:53 PM -26.3982 148.2624 277° West 393 452 30,100  Level Aus ATC (RADAR)
Sat 08:51:33 PM -26.3884 148.1804 278° West 396 456 30,100  Level Aus ATC (RADAR)
Sat 08:52:08 PM -26.3800 148.1085 277° West 398 458 30,100  Level Aus ATC (RADAR)
Sat 08:52:48 PM -26.3711 148.0279 277° West 395 455 30,100  Level Aus ATC (RADAR)
Sat 08:53:38 PM -26.3597 147.9263 277° West 395 455 30,100 80 Level Aus ATC (RADAR)
Sat 08:54:03 PM -26.3535 147.8752 278° West 396 456 30,200 94 Climbing Aus ATC (RADAR)
Sat 08:54:42 PM -26.3439 147.7933 277° West 398 458 30,200  Level Aus ATC (RADAR)
Sat 08:55:47 PM -26.3292 147.6613 277° West 396 456 30,200  Level Aus ATC (RADAR)
Sat 08:56:07 PM -26.3245 147.6207 277° West 395 455 30,200  Level Aus ATC (RADAR)
Sat 08:56:47 PM -26.3155 147.5392 277° West 397 457 30,200  Level Aus ATC (RADAR)
Sat 08:57:27 PM -26.3058 147.4579 278° West 397 457 30,200  Level Aus ATC (RADAR)
Sat 08:58:02 PM -26.2991 147.3871 276° West 397 457 30,200  Level Aus ATC (RADAR)
Sat 08:58:32 PM -26.2898 147.3245 279° West 398 458 30,200 -2 Level Aus ATC (RADAR)
Sat 09:01:37 PM -26.2419 146.9236 279° West 30,000 -2 Descending Aus ATC (Calculated)
Sat 09:03:00 PM -26.2186 146.7571 279° West  Level Estimated
Sat 09:03:57 PM -26.2090 146.6531 279° West 30,000  Level Aus ATC (Calculated)
Sat 09:04:00 PM -26.2016 146.6368 279° West  Level Estimated
Sat 09:05:00 PM -26.1910 146.5268 279° West  Level Estimated
Sat 09:06:00 PM -26.1737 146.4066 279° West  Level Estimated
Sat 09:07:00 PM -26.1564 146.2864 279° West  Level Estimated
Sat 09:08:00 PM -26.1390 146.1662 279° West  Level Estimated
Sat 09:08:51 PM -26.1351 146.0620 279° West 30,000  Level Aus ATC (Calculated)
Sat 09:09:00 PM -26.1215 146.0461 279° West  Level Estimated
Sat 09:10:00 PM -26.1147 145.9239 279° West  Level Estimated
Sat 09:11:00 PM -26.0969 145.8038 279° West  Level Estimated
Sat 09:12:00 PM -26.0819 145.6833 278° West  Level FlightAware Approximate
Sat 09:13:00 PM -26.0668 145.5628 278° West  Level FlightAware Approximate
Sat 09:13:51 PM -26.0511 145.4126 280° West 30,000  Level Aus ATC (Calculated)
Sat 09:14:00 PM -26.0516 145.4424 278° West  Level FlightAware Approximate
Sat 09:15:00 PM -26.0328 145.2742 278° West  Level FlightAware Approximate
Sat 09:16:00 PM -26.0168 145.1539 278° West  Level FlightAware Approximate
Sat 09:17:00 PM -26.0007 145.0337 278° West  Level FlightAware Approximate
Sat 09:17:56 PM -25.9862 144.9262 280° West 30,000  Level Aus ATC (Calculated)
Sat 09:18:00 PM -25.9845 144.9135 279° West  Level FlightAware Approximate
Sat 09:18:50 PM -25.9642 144.7641 280° West 30,000  Level Aus ATC (Calculated)
Sat 09:19:00 PM -25.9688 144.7980 279° West  Level FlightAware Approximate
Sat 09:19:30 PM -25.9551 144.7074 280° West 32,000  Level Aus ATC (Calculated)
Sat 09:21:00 PM -25.9414 144.6217 280° West  Level FlightAware Approximate
Sat 09:22:00 PM -25.9223 144.5028 280° West  Level FlightAware Approximate
Sat 09:23:00 PM -25.9031 144.3840 280° West  Level FlightAware Approximate
Sat 09:24:00 PM -25.8838 144.2652 280° West  Level FlightAware Approximate
Sat 09:24:25 PM -25.8556 144.0931 280° West 32,000  Level Aus ATC (Calculated)
Sat 09:26:00 PM -25.8246 143.9051 280° West  Level FlightAware Approximate
Sat 09:27:00 PM -25.8050 143.7865 280° West  Level FlightAware Approximate
Sat 09:28:00 PM -25.7852 143.6679 280° West  Level FlightAware Approximate
Sat 09:29:00 PM -25.7653 143.5493 281° West  Level FlightAware Approximate
Sat 09:29:24 PM -25.7635 143.5390 281° West 32,000  Level Aus ATC (Calculated)
Sat 09:31:00 PM -25.7313 143.3482 281° West  Level FlightAware Approximate
Sat 09:32:00 PM -25.7110 143.2290 281° West  Level FlightAware Approximate
Sat 09:33:00 PM -25.6907 143.1099 281° West  Level FlightAware Approximate
Sat 09:34:00 PM -25.6702 142.9908 281° West  Level FlightAware Approximate
Sat 09:34:24 PM -25.6614 142.9397 281° West 32,000  Level Aus ATC (Calculated)
Sat 09:36:00 PM -25.6284 142.7493 281° West  Level FlightAware Approximate
Sat 09:36:36 PM -25.6127 142.6591 281° West 32,000  Level Aus ATC (Calculated)
Sat 09:38:00 PM -25.5835 142.4926 281° West  Level FlightAware Approximate
Sat 09:38:29 PM -25.5795 142.4699 281° West 32,000  Level Aus ATC (Calculated)
Sat 09:39:00 PM -25.5625 142.3737 281° West  Level FlightAware Approximate
Sat 09:39:23 PM -25.5649 142.3871 281° West 32,000  Level Aus ATC (Calculated)
Sat 09:41:00 PM -25.5308 142.1950 281° West  Level FlightAware Approximate
Sat 09:42:00 PM -25.5096 142.0762 281° West  Level FlightAware Approximate
Sat 09:43:00 PM -25.4883 141.9575 281° West  Level FlightAware Approximate
Sat 09:44:00 PM -25.4669 141.8388 281° West  Level FlightAware Approximate
Sat 09:44:23 PM -25.4539 141.7670 281° West 32,000  Level Aus ATC (Calculated)
Sat 09:45:00 PM -25.4454 141.7202 281° West  Level FlightAware Approximate
Sat 09:46:00 PM -25.4190 141.5753 281° West  Level FlightAware Approximate
Sat 09:47:00 PM -25.3973 141.4567 281° West  Level FlightAware Approximate
Sat 09:47:38 PM -25.3690 141.3027 282° West 32,000  Level Aus ATC (Calculated)
Sat 09:48:00 PM -25.3755 141.3382 281° West  Level FlightAware Approximate
Sat 09:48:53 PM -25.3403 141.1481 282° West 32,000  Level Aus ATC (Calculated)
Sat 09:49:00 PM -25.3391 141.1408 282° West  Level Estimated
Sat 09:50:00 PM -25.3157 141.0159 282° West  Level FlightAware Approximate
Sat 09:51:00 PM -25.2935 140.8975 282° West  Level FlightAware Approximate
Sat 09:52:00 PM -25.2713 140.7792 282° West  Level FlightAware Approximate
Sat 09:53:00 PM -25.2489 140.6609 282° West  Level FlightAware Approximate
Sat 09:53:52 PM -25.2274 140.5479 282° West 32,000  Level Aus ATC (Calculated)
Sat 09:54:00 PM -25.2265 140.5427 282° West  Level FlightAware Approximate
Sat 09:55:00 PM -25.2017 140.4131 282° West  Level FlightAware Approximate
Sat 09:56:00 PM -25.1790 140.2943 282° West  Level FlightAware Approximate
Sat 09:57:00 PM -25.1561 140.1755 282° West  Level FlightAware Approximate
Sat 09:58:00 PM -25.1331 140.0567 282° West  Level FlightAware Approximate
Sat 09:58:51 PM -25.1015 139.8944 282° West 32,000  Level Aus ATC (Calculated)
Sat 09:59:00 PM -25.1100 139.9380 282° West  Level FlightAware Approximate
Sat 10:00:00 PM -25.0749 139.7580 282° West  Level FlightAware Approximate
Sat 10:01:00 PM -25.0515 139.6394 282° West  Level FlightAware Approximate
Sat 10:01:16 PM -25.0482 139.6225 282° West 32,000  Level Aus ATC (Calculated)
Sat 10:02:15 PM -25.0268 139.5138 282° West 32,000 -55 Level Aus ATC (Calculated)
Sat 10:03:51 PM -24.9836 139.2966 282° West 32,000 -56 Level Aus ATC (Calculated)
Sat 10:04:00 PM -24.9856 139.3065 282° West  Level FlightAware Approximate
Sat 10:05:00 PM -24.9564 139.1604 282° West  Level FlightAware Approximate
Sat 10:06:00 PM -24.9326 139.0420 282° West  Level FlightAware Approximate
Sat 10:07:00 PM -24.9087 138.9237 283° West  Level FlightAware Approximate
Sat 10:08:00 PM -24.8848 138.8054 283° West  Level FlightAware Approximate
Sat 10:08:51 PM -24.8633 138.6999 283° West 32,000  Level Aus ATC (Calculated)
Sat 10:09:00 PM -24.8607 138.6872 283° West  Level FlightAware Approximate
Sat 10:10:00 PM -24.8355 138.5640 283° West  Level FlightAware Approximate
Sat 10:11:00 PM -24.8113 138.4458 283° West  Level FlightAware Approximate
Sat 10:12:00 PM -24.7869 138.3277 283° West  Level FlightAware Approximate
Sat 10:13:00 PM -24.7625 138.2097 283° West  Level FlightAware Approximate
Sat 10:14:00 PM -24.7380 138.0917 283° West  Level FlightAware Approximate
Sat 10:14:08 PM -24.7293 138.0503 283° West 32,000  Level Aus ATC (Calculated)
Sat 10:15:48 PM -24.6841 137.8340 283° West 32,000 -85 Level Aus ATC (Calculated)
Sat 10:16:00 PM -24.6830 137.8288 283° West  Level FlightAware Approximate
Sat 10:16:52 PM -24.6499 137.6720 283° West 32,000  Level Aus ATC (Calculated)
Sat 10:17:00 PM -24.6541 137.6918 283° West  Level FlightAware Approximate
Sat 10:18:00 PM -24.6067 137.5425 290° West  Level FlightAware Approximate
Sat 10:19:00 PM -24.6355 137.6036 283° West  Level FlightAware Approximate
Sat 10:19:22 PM -24.5894 137.3873 283° West 32,000  Level Aus ATC (Calculated)
Sat 10:20:00 PM -24.6103 137.4852 283° West  Level FlightAware Approximate
Sat 10:21:00 PM -24.5480 137.1940 283° West  Level FlightAware Approximate
Sat 10:21:37 PM -24.5407 137.1599 283° West 32,000  Level Aus ATC (Calculated)
Sat 10:22:00 PM -24.5225 137.0757 283° West  Level FlightAware Approximate
Sat 10:23:00 PM -24.5053 136.9962 283° West  Level FlightAware Approximate
Sat 10:23:47 PM -24.4792 136.8757 283° West 32,000  Level Aus ATC (Calculated)
Sat 10:24:00 PM -24.4797 136.8780 283° West  Level FlightAware Approximate
Sat 10:25:00 PM -24.4513 136.7477 284° West  Level FlightAware Approximate
Sat 10:26:00 PM -24.4254 136.6296 284° West  Level FlightAware Approximate
Sat 10:27:00 PM -24.3994 136.5116 284° West  Level FlightAware Approximate
Sat 10:28:00 PM -24.3733 136.3935 284° West  Level FlightAware Approximate
Sat 10:28:47 PM -24.3547 136.3096 284° West 900  Level Aus ATC (Calculated)
Sat 10:29:00 PM -24.3471 136.2756 284° West  Level FlightAware Approximate
Sat 10:30:00 PM -24.3227 136.1661 284° West  Level FlightAware Approximate
Sat 10:31:00 PM -24.2964 136.0483 284° West  Level FlightAware Approximate
Sat 10:32:00 PM -24.2699 135.9305 284° West  Level FlightAware Approximate
Sat 10:33:00 PM -24.2433 135.8127 284° West  Level FlightAware Approximate
Sat 10:33:56 PM -24.2384 135.7754 284° West  Level Aus ATC (Calculated)
Sat 10:34:00 PM -24.2167 135.6950 284° West  Level FlightAware Approximate
Sat 10:34:25 PM -24.2184 135.6858 284° West  Level Aus ATC (Calculated)
Sat 10:35:12 PM -24.1922 135.5870 284° West 900 9,000 Climbing Aus ATC (Calculated)
Sat 10:36:56 PM -24.1510 135.4066 284° West 900 11,412 Level Aus ATC (Calculated)
Sat 10:37:00 PM -24.1439 135.3753 284° West  Level FlightAware Approximate
Sat 10:37:45 PM -24.0493 134.9648 284° West 435 501 30,000  Level FlightAware ADS-B
Sat 10:38:00 PM -24.1223 135.2813 284° West  Level FlightAware Approximate
Sat 10:38:12 PM -24.1304 135.3165 284° West 900  Level Aus ATC (Calculated)
Sat 10:38:16 PM -24.0344 134.9004 284° West 427 491 29,000 46,059 Climbing FlightAware ADS-B
Sat 10:38:46 PM -24.0200 134.8384 284° West 427 491 27,000 -4,160 Descending FlightAware ADS-B
Sat 10:39:31 PM -23.9988 134.7473 284° West 431 496 23,800 -4,080 Descending FlightAware ADS-B
Sat 10:39:56 PM -24.0889 135.1363 284° West 900 -3,800 Descending Aus ATC (Calculated)
Sat 10:40:01 PM -23.9832 134.6799 284° West 427 491 21,900 33,086 Climbing FlightAware ADS-B
Sat 10:40:31 PM -23.9686 134.6180 284° West 421 484 20,200 -3,200 Descending FlightAware ADS-B
Sat 10:40:46 PM -24.0681 135.0463 284° West 900 -3,000 Descending Aus ATC (Calculated)
Sat 10:41:01 PM -23.9539 134.5569 285° West 410 472 18,700 20,739 Climbing FlightAware ADS-B
Sat 10:41:32 PM -23.9394 134.4966 285° West 407 468 16,800 -3,738 Descending FlightAware ADS-B
Sat 10:42:02 PM -23.9241 134.4368 285° West 399 459 14,900 -3,800 Descending FlightAware ADS-B
Sat 10:43:40 PM -23.9843 134.6863 284° West 900 -8,571 Descending Aus ATC (Calculated)
Sat 10:44:00 PM -23.8702 134.2064 284° West  Level FlightAware Approximate
Sat 10:45:00 PM -23.9492 134.5296 284° West  Level Estimated
Sat 10:46:00 PM -23.9213 134.4125 285° West  Level FlightAware Approximate
Sat 10:46:40 PM -23.8997 134.3269 283° West 900  Level Aus ATC (Calculated)
Sat 10:47:00 PM -23.8933 134.2955 285° West  Level FlightAware Approximate
Sat 10:48:00 PM -23.8626 134.1708 285° West  Level FlightAware Approximate
Sat 10:49:00 PM -23.8347 134.0538 285° West  Level FlightAware Approximate
Sat 10:50:00 PM -23.8068 133.9368 285° West  Level FlightAware Approximate
Sat 10:51:00 PM -23.8067 133.9022 284° West  Level Estimated
Sat 10:52:00 PM -23.8067 133.9022 North  Level Estimated
Sat 10:53:00 PM -23.8067 133.9022 284° West  Level Estimated
Sat 10:54:00 PM -23.8067 133.9022 North  Level Estimated
Sat 10:55:00 PM -23.8067 133.9022 284° West  Level Estimated
Sat 10:56:00 PM -23.8067 133.9022 North  Level Estimated
Sat 10:57:00 PM -23.8067 133.9022 284° West  Level Estimated
Sat 10:58:00 PM -23.8067 133.9022 North  Level Estimated
Sat 10:59:00 PM -23.8067 133.9022 284° West  Level Estimated
Sat 11:00:00 PM -23.8067 133.9022 North  Level Estimated
Sat 11:01:00 PM -23.8067 133.9022 284° West  Level Estimated
Sat 11:02:00 PM -23.8067 133.9022 North  Level Estimated
Sat 11:03:00 PM -23.8067 133.9022 284° West  Level Estimated
Sat 11:04:00 PM -23.8067 133.9022 North  Level Estimated
Sat 11:05:00 PM -23.8067 133.9022 284° West  Level Estimated
Sat 11:06:00 PM -23.8067 133.9022 North  Level Estimated

Login

Don't have an account? Register now (free) for customized features, flight alerts, and more!